sensor_id;sensor_type;location;lat;lon;timestamp;P1;durP1;ratioP1;P2;durP2;ratioP2
52508;SDS011;38420;53.150;6.370;2024-02-21T00:01:43;15.15;;;2.88;;
52508;SDS011;38420;53.150;6.370;2024-02-21T00:04:08;15.63;;;3.72;;
52508;SDS011;38420;53.150;6.370;2024-02-21T00:06:34;13.90;;;2.30;;
52508;SDS011;38420;53.150;6.370;2024-02-21T00:09:00;10.88;;;3.17;;
52508;SDS011;38420;53.150;6.370;2024-02-21T00:11:25;16.60;;;3.88;;
52508;SDS011;38420;53.150;6.370;2024-02-21T00:13:51;10.80;;;3.08;;
52508;SDS011;38420;53.150;6.370;2024-02-21T00:16:17;12.57;;;3.05;;
52508;SDS011;38420;53.150;6.370;2024-02-21T00:18:45;14.82;;;3.00;;
52508;SDS011;38420;53.150;6.370;2024-02-21T00:21:11;16.02;;;3.92;;
52508;SDS011;38420;53.150;6.370;2024-02-21T00:23:43;14.68;;;3.35;;
52508;SDS011;38420;53.150;6.370;2024-02-21T00:26:15;12.07;;;3.63;;
52508;SDS011;38420;53.150;6.370;2024-02-21T00:28:40;14.77;;;3.53;;
52508;SDS011;38420;53.150;6.370;2024-02-21T00:31:06;11.27;;;3.90;;
52508;SDS011;38420;53.150;6.370;2024-02-21T00:33:32;19.90;;;3.97;;
52508;SDS011;38420;53.150;6.370;2024-02-21T00:35:57;14.63;;;4.47;;
52508;SDS011;38420;53.150;6.370;2024-02-21T00:38:23;15.20;;;5.03;;
52508;SDS011;38420;53.150;6.370;2024-02-21T00:40:49;22.00;;;6.07;;
52508;SDS011;38420;53.150;6.370;2024-02-21T00:43:14;16.23;;;4.80;;
52508;SDS011;38420;53.150;6.370;2024-02-21T00:45:40;19.65;;;6.18;;
52508;SDS011;38420;53.150;6.370;2024-02-21T00:48:06;14.50;;;5.32;;
52508;SDS011;38420;53.150;6.370;2024-02-21T00:50:32;20.05;;;5.70;;
52508;SDS011;38420;53.150;6.370;2024-02-21T00:52:58;15.00;;;6.28;;
52508;SDS011;38420;53.150;6.370;2024-02-21T00:55:24;22.92;;;6.93;;
52508;SDS011;38420;53.150;6.370;2024-02-21T00:57:49;20.92;;;6.95;;
52508;SDS011;38420;53.150;6.370;2024-02-21T01:00:15;15.35;;;6.50;;
52508;SDS011;38420;53.150;6.370;2024-02-21T01:02:41;15.60;;;6.18;;
52508;SDS011;38420;53.150;6.370;2024-02-21T01:05:07;20.77;;;6.80;;
52508;SDS011;38420;53.150;6.370;2024-02-21T01:07:32;12.45;;;7.65;;
52508;SDS011;38420;53.150;6.370;2024-02-21T01:09:58;15.77;;;6.75;;
52508;SDS011;38420;53.150;6.370;2024-02-21T01:12:24;16.13;;;6.32;;
52508;SDS011;38420;53.150;6.370;2024-02-21T01:14:50;18.75;;;7.53;;
52508;SDS011;38420;53.150;6.370;2024-02-21T01:17:15;14.52;;;7.95;;
52508;SDS011;38420;53.150;6.370;2024-02-21T01:19:41;14.48;;;6.78;;
52508;SDS011;38420;53.150;6.370;2024-02-21T01:22:07;26.20;;;7.50;;
52508;SDS011;38420;53.150;6.370;2024-02-21T01:24:33;22.30;;;8.15;;
52508;SDS011;38420;53.150;6.370;2024-02-21T01:26:58;14.95;;;8.05;;
52508;SDS011;38420;53.150;6.370;2024-02-21T01:29:24;21.90;;;10.63;;
52508;SDS011;38420;53.150;6.370;2024-02-21T01:31:50;23.13;;;10.00;;
52508;SDS011;38420;53.150;6.370;2024-02-21T01:34:15;21.70;;;11.45;;
52508;SDS011;38420;53.150;6.370;2024-02-21T01:36:41;20.95;;;11.10;;
52508;SDS011;38420;53.150;6.370;2024-02-21T01:39:07;16.63;;;10.68;;
52508;SDS011;38420;53.150;6.370;2024-02-21T01:41:32;16.08;;;11.07;;
52508;SDS011;38420;53.150;6.370;2024-02-21T01:43:58;15.80;;;12.23;;
52508;SDS011;38420;53.150;6.370;2024-02-21T01:46:24;20.63;;;14.38;;
52508;SDS011;38420;53.150;6.370;2024-02-21T01:48:55;15.63;;;13.90;;
52508;SDS011;38420;53.150;6.370;2024-02-21T01:51:22;19.45;;;14.90;;
52508;SDS011;38420;53.150;6.370;2024-02-21T01:53:49;23.08;;;17.05;;
52508;SDS011;38420;53.150;6.370;2024-02-21T01:56:16;21.17;;;19.23;;
52508;SDS011;38420;53.150;6.370;2024-02-21T01:58:42;22.27;;;17.80;;
52508;SDS011;38420;53.150;6.370;2024-02-21T02:01:12;22.77;;;18.35;;
52508;SDS011;38420;53.150;6.370;2024-02-21T02:03:38;20.92;;;18.42;;
52508;SDS011;38420;53.150;6.370;2024-02-21T02:06:04;22.55;;;18.75;;
52508;SDS011;38420;53.150;6.370;2024-02-21T02:08:31;20.23;;;18.38;;
52508;SDS011;38420;53.150;6.370;2024-02-21T02:10:58;26.08;;;23.77;;
52508;SDS011;38420;53.150;6.370;2024-02-21T02:13:24;26.25;;;24.25;;
52508;SDS011;38420;53.150;6.370;2024-02-21T02:15:50;24.80;;;22.73;;
52508;SDS011;38420;53.150;6.370;2024-02-21T02:18:16;26.38;;;23.55;;
52508;SDS011;38420;53.150;6.370;2024-02-21T02:20:43;26.92;;;23.73;;
52508;SDS011;38420;53.150;6.370;2024-02-21T02:23:11;26.55;;;24.30;;
52508;SDS011;38420;53.150;6.370;2024-02-21T02:25:37;27.05;;;23.42;;
52508;SDS011;38420;53.150;6.370;2024-02-21T02:28:05;26.83;;;24.42;;
52508;SDS011;38420;53.150;6.370;2024-02-21T02:30:32;27.50;;;24.92;;
52508;SDS011;38420;53.150;6.370;2024-02-21T02:32:59;30.58;;;27.20;;
52508;SDS011;38420;53.150;6.370;2024-02-21T02:35:25;32.65;;;25.90;;
52508;SDS011;38420;53.150;6.370;2024-02-21T02:37:50;28.10;;;25.63;;
52508;SDS011;38420;53.150;6.370;2024-02-21T02:40:17;30.80;;;25.98;;
52508;SDS011;38420;53.150;6.370;2024-02-21T02:42:43;32.10;;;26.20;;
52508;SDS011;38420;53.150;6.370;2024-02-21T02:45:09;29.13;;;26.65;;
52508;SDS011;38420;53.150;6.370;2024-02-21T02:47:35;40.17;;;28.70;;
52508;SDS011;38420;53.150;6.370;2024-02-21T02:50:01;30.10;;;27.17;;
52508;SDS011;38420;53.150;6.370;2024-02-21T02:52:27;33.35;;;25.73;;
52508;SDS011;38420;53.150;6.370;2024-02-21T02:54:52;35.50;;;26.48;;
52508;SDS011;38420;53.150;6.370;2024-02-21T02:57:20;30.85;;;28.02;;
52508;SDS011;38420;53.150;6.370;2024-02-21T02:59:52;29.02;;;25.58;;
52508;SDS011;38420;53.150;6.370;2024-02-21T03:02:18;28.45;;;25.70;;
52508;SDS011;38420;53.150;6.370;2024-02-21T03:04:44;29.77;;;26.67;;
52508;SDS011;38420;53.150;6.370;2024-02-21T03:07:09;27.65;;;24.70;;
52508;SDS011;38420;53.150;6.370;2024-02-21T03:09:38;30.95;;;26.35;;
52508;SDS011;38420;53.150;6.370;2024-02-21T03:12:05;29.10;;;26.17;;
52508;SDS011;38420;53.150;6.370;2024-02-21T03:14:31;28.70;;;25.70;;
52508;SDS011;38420;53.150;6.370;2024-02-21T03:16:58;29.05;;;26.42;;
52508;SDS011;38420;53.150;6.370;2024-02-21T03:19:24;32.88;;;28.17;;
52508;SDS011;38420;53.150;6.370;2024-02-21T03:21:50;30.27;;;27.27;;
52508;SDS011;38420;53.150;6.370;2024-02-21T03:24:16;31.77;;;28.65;;
52508;SDS011;38420;53.150;6.370;2024-02-21T03:26:42;29.70;;;26.60;;
52508;SDS011;38420;53.150;6.370;2024-02-21T03:29:08;28.15;;;25.38;;
52508;SDS011;38420;53.150;6.370;2024-02-21T03:31:34;28.42;;;25.45;;
52508;SDS011;38420;53.150;6.370;2024-02-21T03:34:00;37.20;;;26.63;;
52508;SDS011;38420;53.150;6.370;2024-02-21T03:36:26;26.48;;;22.85;;
52508;SDS011;38420;53.150;6.370;2024-02-21T03:38:51;35.60;;;25.30;;
52508;SDS011;38420;53.150;6.370;2024-02-21T03:41:17;26.88;;;23.80;;
52508;SDS011;38420;53.150;6.370;2024-02-21T03:43:43;34.58;;;24.50;;
52508;SDS011;38420;53.150;6.370;2024-02-21T03:46:08;31.05;;;26.25;;
52508;SDS011;38420;53.150;6.370;2024-02-21T03:48:34;24.35;;;21.85;;
52508;SDS011;38420;53.150;6.370;2024-02-21T03:51:00;27.02;;;23.27;;
52508;SDS011;38420;53.150;6.370;2024-02-21T03:53:26;34.28;;;23.42;;
52508;SDS011;38420;53.150;6.370;2024-02-21T03:55:52;32.92;;;24.35;;
52508;SDS011;38420;53.150;6.370;2024-02-21T03:58:18;25.63;;;22.95;;
52508;SDS011;38420;53.150;6.370;2024-02-21T04:00:44;26.42;;;23.70;;
52508;SDS011;38420;53.150;6.370;2024-02-21T04:03:09;27.77;;;24.95;;
52508;SDS011;38420;53.150;6.370;2024-02-21T04:05:35;26.67;;;23.88;;
52508;SDS011;38420;53.150;6.370;2024-02-21T04:08:03;25.20;;;22.27;;
52508;SDS011;38420;53.150;6.370;2024-02-21T04:10:30;29.63;;;24.08;;
52508;SDS011;38420;53.150;6.370;2024-02-21T04:12:55;32.00;;;25.00;;
52508;SDS011;38420;53.150;6.370;2024-02-21T04:15:21;27.98;;;22.65;;
52508;SDS011;38420;53.150;6.370;2024-02-21T04:17:47;31.25;;;26.20;;
52508;SDS011;38420;53.150;6.370;2024-02-21T04:20:16;27.17;;;24.48;;
52508;SDS011;38420;53.150;6.370;2024-02-21T04:22:45;32.75;;;25.60;;
52508;SDS011;38420;53.150;6.370;2024-02-21T04:25:11;27.38;;;24.75;;
52508;SDS011;38420;53.150;6.370;2024-02-21T04:27:38;27.95;;;25.27;;
52508;SDS011;38420;53.150;6.370;2024-02-21T04:30:04;30.90;;;23.70;;
52508;SDS011;38420;53.150;6.370;2024-02-21T04:32:31;29.65;;;26.33;;
52508;SDS011;38420;53.150;6.370;2024-02-21T04:34:57;30.40;;;27.20;;
52508;SDS011;38420;53.150;6.370;2024-02-21T04:37:22;35.70;;;27.98;;
52508;SDS011;38420;53.150;6.370;2024-02-21T04:39:48;34.95;;;26.92;;
52508;SDS011;38420;53.150;6.370;2024-02-21T04:42:14;29.80;;;25.48;;
52508;SDS011;38420;53.150;6.370;2024-02-21T04:44:40;31.23;;;26.23;;
52508;SDS011;38420;53.150;6.370;2024-02-21T04:47:06;27.30;;;23.70;;
52508;SDS011;38420;53.150;6.370;2024-02-21T04:49:32;26.95;;;24.10;;
52508;SDS011;38420;53.150;6.370;2024-02-21T04:51:58;31.45;;;23.30;;
52508;SDS011;38420;53.150;6.370;2024-02-21T04:54:24;24.85;;;22.38;;
52508;SDS011;38420;53.150;6.370;2024-02-21T04:56:50;26.45;;;21.48;;
52508;SDS011;38420;53.150;6.370;2024-02-21T04:59:16;35.25;;;23.88;;
52508;SDS011;38420;53.150;6.370;2024-02-21T05:01:42;27.92;;;23.98;;
52508;SDS011;38420;53.150;6.370;2024-02-21T05:04:08;33.97;;;25.17;;
52508;SDS011;38420;53.150;6.370;2024-02-21T05:06:40;32.63;;;24.75;;
52508;SDS011;38420;53.150;6.370;2024-02-21T05:09:07;28.45;;;22.92;;
52508;SDS011;38420;53.150;6.370;2024-02-21T05:11:36;32.25;;;26.10;;
52508;SDS011;38420;53.150;6.370;2024-02-21T05:14:02;32.65;;;25.42;;
52508;SDS011;38420;53.150;6.370;2024-02-21T05:16:29;26.42;;;24.10;;
52508;SDS011;38420;53.150;6.370;2024-02-21T05:18:54;26.65;;;24.35;;
52508;SDS011;38420;53.150;6.370;2024-02-21T05:21:22;33.03;;;24.88;;
52508;SDS011;38420;53.150;6.370;2024-02-21T05:23:48;27.02;;;24.70;;
52508;SDS011;38420;53.150;6.370;2024-02-21T05:26:21;30.42;;;23.83;;
52508;SDS011;38420;53.150;6.370;2024-02-21T05:28:48;25.60;;;23.42;;
52508;SDS011;38420;53.150;6.370;2024-02-21T05:31:15;29.10;;;24.45;;
52508;SDS011;38420;53.150;6.370;2024-02-21T05:33:41;24.40;;;21.92;;
52508;SDS011;38420;53.150;6.370;2024-02-21T05:36:07;33.90;;;25.30;;
52508;SDS011;38420;53.150;6.370;2024-02-21T05:38:33;26.65;;;23.98;;
52508;SDS011;38420;53.150;6.370;2024-02-21T05:40:59;47.38;;;25.25;;
52508;SDS011;38420;53.150;6.370;2024-02-21T05:43:24;30.50;;;26.17;;
52508;SDS011;38420;53.150;6.370;2024-02-21T05:45:50;35.05;;;26.17;;
52508;SDS011;38420;53.150;6.370;2024-02-21T05:48:16;27.15;;;24.35;;
52508;SDS011;38420;53.150;6.370;2024-02-21T05:50:41;27.08;;;24.15;;
52508;SDS011;38420;53.150;6.370;2024-02-21T05:53:07;31.10;;;24.67;;
52508;SDS011;38420;53.150;6.370;2024-02-21T05:55:32;25.52;;;23.25;;
52508;SDS011;38420;53.150;6.370;2024-02-21T05:57:58;26.48;;;22.92;;
52508;SDS011;38420;53.150;6.370;2024-02-21T06:00:24;26.35;;;22.13;;
52508;SDS011;38420;53.150;6.370;2024-02-21T06:02:49;28.50;;;22.05;;
52508;SDS011;38420;53.150;6.370;2024-02-21T06:05:15;23.77;;;21.45;;
52508;SDS011;38420;53.150;6.370;2024-02-21T06:07:41;33.35;;;21.38;;
52508;SDS011;38420;53.150;6.370;2024-02-21T06:10:07;29.60;;;24.15;;
52508;SDS011;38420;53.150;6.370;2024-02-21T06:12:33;25.20;;;22.58;;
52508;SDS011;38420;53.150;6.370;2024-02-21T06:14:58;25.23;;;21.80;;
52508;SDS011;38420;53.150;6.370;2024-02-21T06:17:24;37.95;;;24.15;;
52508;SDS011;38420;53.150;6.370;2024-02-21T06:19:50;25.60;;;22.88;;
52508;SDS011;38420;53.150;6.370;2024-02-21T06:22:15;28.27;;;22.67;;
52508;SDS011;38420;53.150;6.370;2024-02-21T06:24:41;24.95;;;22.58;;
52508;SDS011;38420;53.150;6.370;2024-02-21T06:27:08;27.58;;;22.60;;
52508;SDS011;38420;53.150;6.370;2024-02-21T06:29:33;24.95;;;22.30;;
52508;SDS011;38420;53.150;6.370;2024-02-21T06:32:00;26.80;;;22.40;;
52508;SDS011;38420;53.150;6.370;2024-02-21T06:34:25;30.70;;;24.85;;
52508;SDS011;38420;53.150;6.370;2024-02-21T06:36:51;27.50;;;24.52;;
52508;SDS011;38420;53.150;6.370;2024-02-21T06:39:17;31.38;;;24.08;;
52508;SDS011;38420;53.150;6.370;2024-02-21T06:41:43;29.25;;;26.42;;
52508;SDS011;38420;53.150;6.370;2024-02-21T06:44:09;29.50;;;25.35;;
52508;SDS011;38420;53.150;6.370;2024-02-21T06:46:35;28.33;;;25.58;;
52508;SDS011;38420;53.150;6.370;2024-02-21T06:49:01;28.60;;;25.20;;
52508;SDS011;38420;53.150;6.370;2024-02-21T06:51:30;30.77;;;23.92;;
52508;SDS011;38420;53.150;6.370;2024-02-21T06:53:56;36.30;;;27.35;;
52508;SDS011;38420;53.150;6.370;2024-02-21T06:56:25;31.02;;;26.63;;
52508;SDS011;38420;53.150;6.370;2024-02-21T06:58:57;39.53;;;29.15;;
52508;SDS011;38420;53.150;6.370;2024-02-21T07:01:26;49.60;;;29.25;;
52508;SDS011;38420;53.150;6.370;2024-02-21T07:03:51;47.05;;;33.38;;
52508;SDS011;38420;53.150;6.370;2024-02-21T07:06:17;43.70;;;30.67;;
52508;SDS011;38420;53.150;6.370;2024-02-21T07:08:43;48.58;;;32.72;;
52508;SDS011;38420;53.150;6.370;2024-02-21T07:11:08;45.72;;;32.25;;
52508;SDS011;38420;53.150;6.370;2024-02-21T07:13:34;49.38;;;32.97;;
52508;SDS011;38420;53.150;6.370;2024-02-21T07:16:00;49.78;;;32.75;;
52508;SDS011;38420;53.150;6.370;2024-02-21T07:18:25;39.70;;;29.40;;
52508;SDS011;38420;53.150;6.370;2024-02-21T07:20:51;48.20;;;31.77;;
52508;SDS011;38420;53.150;6.370;2024-02-21T07:23:18;36.28;;;24.23;;
52508;SDS011;38420;53.150;6.370;2024-02-21T07:25:43;45.00;;;27.83;;
52508;SDS011;38420;53.150;6.370;2024-02-21T07:28:09;38.30;;;28.85;;
52508;SDS011;38420;53.150;6.370;2024-02-21T07:30:35;32.55;;;22.63;;
52508;SDS011;38420;53.150;6.370;2024-02-21T07:33:00;29.08;;;25.38;;
52508;SDS011;38420;53.150;6.370;2024-02-21T07:35:26;27.30;;;24.42;;
52508;SDS011;38420;53.150;6.370;2024-02-21T07:37:52;41.80;;;25.38;;
52508;SDS011;38420;53.150;6.370;2024-02-21T07:40:18;27.58;;;24.67;;
52508;SDS011;38420;53.150;6.370;2024-02-21T07:42:43;30.45;;;24.00;;
52508;SDS011;38420;53.150;6.370;2024-02-21T07:45:09;24.65;;;22.15;;
52508;SDS011;38420;53.150;6.370;2024-02-21T07:47:35;32.05;;;22.75;;
52508;SDS011;38420;53.150;6.370;2024-02-21T07:50:04;27.83;;;23.30;;
52508;SDS011;38420;53.150;6.370;2024-02-21T07:52:30;24.38;;;21.80;;
52508;SDS011;38420;53.150;6.370;2024-02-21T07:54:56;22.55;;;20.40;;
52508;SDS011;38420;53.150;6.370;2024-02-21T07:57:22;25.33;;;21.70;;
52508;SDS011;38420;53.150;6.370;2024-02-21T07:59:48;24.50;;;21.92;;
52508;SDS011;38420;53.150;6.370;2024-02-21T08:02:14;24.27;;;21.80;;
52508;SDS011;38420;53.150;6.370;2024-02-21T08:04:40;22.20;;;20.20;;
52508;SDS011;38420;53.150;6.370;2024-02-21T08:07:06;23.33;;;21.25;;
52508;SDS011;38420;53.150;6.370;2024-02-21T08:09:31;22.48;;;20.45;;
52508;SDS011;38420;53.150;6.370;2024-02-21T08:11:57;25.88;;;17.75;;
52508;SDS011;38420;53.150;6.370;2024-02-21T08:14:23;22.92;;;16.02;;
52508;SDS011;38420;53.150;6.370;2024-02-21T08:16:50;23.90;;;18.15;;
52508;SDS011;38420;53.150;6.370;2024-02-21T08:19:18;20.65;;;18.48;;
52508;SDS011;38420;53.150;6.370;2024-02-21T08:21:44;20.10;;;17.50;;
52508;SDS011;38420;53.150;6.370;2024-02-21T08:24:12;19.33;;;17.40;;
52508;SDS011;38420;53.150;6.370;2024-02-21T08:26:40;19.23;;;16.15;;
52508;SDS011;38420;53.150;6.370;2024-02-21T08:29:06;23.75;;;16.58;;
52508;SDS011;38420;53.150;6.370;2024-02-21T08:31:32;19.42;;;16.55;;
52508;SDS011;38420;53.150;6.370;2024-02-21T08:33:59;14.07;;;12.52;;
52508;SDS011;38420;53.150;6.370;2024-02-21T08:36:28;25.10;;;13.77;;
52508;SDS011;38420;53.150;6.370;2024-02-21T08:39:01;19.60;;;13.32;;
52508;SDS011;38420;53.150;6.370;2024-02-21T08:41:31;24.92;;;14.38;;
52508;SDS011;38420;53.150;6.370;2024-02-21T08:43:57;24.92;;;13.27;;
52508;SDS011;38420;53.150;6.370;2024-02-21T08:46:23;16.73;;;11.68;;
52508;SDS011;38420;53.150;6.370;2024-02-21T08:48:52;25.42;;;12.95;;
52508;SDS011;38420;53.150;6.370;2024-02-21T08:51:18;19.50;;;12.75;;
52508;SDS011;38420;53.150;6.370;2024-02-21T08:53:48;22.30;;;11.73;;
52508;SDS011;38420;53.150;6.370;2024-02-21T08:56:17;20.05;;;12.95;;
52508;SDS011;38420;53.150;6.370;2024-02-21T08:58:43;20.23;;;12.15;;
52508;SDS011;38420;53.150;6.370;2024-02-21T09:01:08;23.58;;;12.75;;
52508;SDS011;38420;53.150;6.370;2024-02-21T09:03:38;15.93;;;12.68;;
52508;SDS011;38420;53.150;6.370;2024-02-21T09:06:04;22.10;;;12.90;;
52508;SDS011;38420;53.150;6.370;2024-02-21T09:08:30;20.23;;;11.63;;
52508;SDS011;38420;53.150;6.370;2024-02-21T09:10:56;24.00;;;13.88;;
52508;SDS011;38420;53.150;6.370;2024-02-21T09:13:22;27.20;;;13.52;;
52508;SDS011;38420;53.150;6.370;2024-02-21T09:15:49;23.50;;;11.30;;
52508;SDS011;38420;53.150;6.370;2024-02-21T09:18:15;19.80;;;11.75;;
52508;SDS011;38420;53.150;6.370;2024-02-21T09:20:42;19.52;;;11.82;;
52508;SDS011;38420;53.150;6.370;2024-02-21T09:23:08;23.38;;;13.80;;
52508;SDS011;38420;53.150;6.370;2024-02-21T09:25:34;21.75;;;12.18;;
52508;SDS011;38420;53.150;6.370;2024-02-21T09:28:00;18.80;;;11.00;;
52508;SDS011;38420;53.150;6.370;2024-02-21T09:30:26;21.67;;;11.10;;
52508;SDS011;38420;53.150;6.370;2024-02-21T09:32:52;33.70;;;11.75;;
52508;SDS011;38420;53.150;6.370;2024-02-21T09:35:18;20.23;;;10.45;;
52508;SDS011;38420;53.150;6.370;2024-02-21T09:37:43;25.38;;;11.13;;
52508;SDS011;38420;53.150;6.370;2024-02-21T09:40:09;19.35;;;10.75;;
52508;SDS011;38420;53.150;6.370;2024-02-21T09:42:39;18.08;;;10.32;;
52508;SDS011;38420;53.150;6.370;2024-02-21T09:45:19;27.10;;;9.93;;
52508;SDS011;38420;53.150;6.370;2024-02-21T09:50:38;22.92;;;10.05;;
52508;SDS011;38420;53.150;6.370;2024-02-21T09:53:09;24.35;;;9.85;;
52508;SDS011;38420;53.150;6.370;2024-02-21T09:55:37;19.80;;;9.65;;
52508;SDS011;38420;53.150;6.370;2024-02-21T09:58:06;21.85;;;9.18;;
52508;SDS011;38420;53.150;6.370;2024-02-21T10:00:34;29.52;;;10.02;;
52508;SDS011;38420;53.150;6.370;2024-02-21T10:03:01;26.70;;;10.50;;
52508;SDS011;38420;53.150;6.370;2024-02-21T10:05:27;18.73;;;9.00;;
52508;SDS011;38420;53.150;6.370;2024-02-21T10:07:53;21.83;;;8.10;;
52508;SDS011;38420;53.150;6.370;2024-02-21T10:10:21;20.48;;;10.23;;
52508;SDS011;38420;53.150;6.370;2024-02-21T10:12:50;19.45;;;8.68;;
52508;SDS011;38420;53.150;6.370;2024-02-21T10:15:23;18.70;;;8.57;;
52508;SDS011;38420;53.150;6.370;2024-02-21T10:17:50;22.80;;;9.95;;
52508;SDS011;38420;53.150;6.370;2024-02-21T10:20:24;26.83;;;10.35;;
52508;SDS011;38420;53.150;6.370;2024-02-21T10:22:59;20.88;;;9.43;;
52508;SDS011;38420;53.150;6.370;2024-02-21T10:25:38;18.48;;;9.18;;
52508;SDS011;38420;53.150;6.370;2024-02-21T10:28:06;17.55;;;9.52;;
52508;SDS011;38420;53.150;6.370;2024-02-21T10:30:32;16.33;;;8.80;;
52508;SDS011;38420;53.150;6.370;2024-02-21T10:32:58;25.80;;;10.43;;
52508;SDS011;38420;53.150;6.370;2024-02-21T10:35:31;21.40;;;10.38;;
52508;SDS011;38420;53.150;6.370;2024-02-21T10:37:58;19.27;;;9.30;;
52508;SDS011;38420;53.150;6.370;2024-02-21T10:40:25;24.40;;;11.20;;
52508;SDS011;38420;53.150;6.370;2024-02-21T10:43:02;22.25;;;9.15;;
52508;SDS011;38420;53.150;6.370;2024-02-21T10:45:33;26.40;;;11.55;;
52508;SDS011;38420;53.150;6.370;2024-02-21T10:48:08;27.25;;;10.57;;
52508;SDS011;38420;53.150;6.370;2024-02-21T10:50:57;24.35;;;10.35;;
52508;SDS011;38420;53.150;6.370;2024-02-21T10:53:39;20.97;;;11.10;;
52508;SDS011;38420;53.150;6.370;2024-02-21T10:59:05;25.73;;;10.57;;
52508;SDS011;38420;53.150;6.370;2024-02-21T11:01:32;21.90;;;10.40;;
52508;SDS011;38420;53.150;6.370;2024-02-21T11:03:59;21.08;;;11.13;;
52508;SDS011;38420;53.150;6.370;2024-02-21T11:06:27;28.77;;;10.82;;
52508;SDS011;38420;53.150;6.370;2024-02-21T11:09:07;22.38;;;10.80;;
52508;SDS011;38420;53.150;6.370;2024-02-21T11:14:04;20.13;;;10.77;;
52508;SDS011;38420;53.150;6.370;2024-02-21T11:16:34;22.25;;;10.32;;
52508;SDS011;38420;53.150;6.370;2024-02-21T11:19:29;28.48;;;10.48;;
52508;SDS011;38420;53.150;6.370;2024-02-21T11:21:57;26.30;;;10.00;;
52508;SDS011;38420;53.150;6.370;2024-02-21T11:24:27;21.45;;;9.63;;
52508;SDS011;38420;53.150;6.370;2024-02-21T11:27:07;17.55;;;10.07;;
52508;SDS011;38420;53.150;6.370;2024-02-21T11:29:46;18.90;;;9.00;;
52508;SDS011;38420;53.150;6.370;2024-02-21T11:32:14;16.38;;;8.63;;
52508;SDS011;38420;53.150;6.370;2024-02-21T11:34:41;23.50;;;8.88;;
52508;SDS011;38420;53.150;6.370;2024-02-21T11:37:13;23.67;;;9.13;;
52508;SDS011;38420;53.150;6.370;2024-02-21T11:39:42;17.17;;;8.75;;
52508;SDS011;38420;53.150;6.370;2024-02-21T11:42:08;15.00;;;8.52;;
52508;SDS011;38420;53.150;6.370;2024-02-21T11:44:35;17.92;;;8.80;;
52508;SDS011;38420;53.150;6.370;2024-02-21T11:47:08;22.23;;;8.30;;
52508;SDS011;38420;53.150;6.370;2024-02-21T11:49:37;18.05;;;8.27;;
52508;SDS011;38420;53.150;6.370;2024-02-21T11:52:04;19.90;;;8.48;;
52508;SDS011;38420;53.150;6.370;2024-02-21T11:54:30;17.67;;;7.68;;
52508;SDS011;38420;53.150;6.370;2024-02-21T11:56:56;14.45;;;7.47;;
52508;SDS011;38420;53.150;6.370;2024-02-21T11:59:22;20.30;;;7.50;;
52508;SDS011;38420;53.150;6.370;2024-02-21T12:01:48;13.27;;;7.15;;
52508;SDS011;38420;53.150;6.370;2024-02-21T12:04:15;15.50;;;7.65;;
52508;SDS011;38420;53.150;6.370;2024-02-21T12:06:44;21.90;;;7.10;;
52508;SDS011;38420;53.150;6.370;2024-02-21T12:09:14;17.48;;;7.75;;
52508;SDS011;38420;53.150;6.370;2024-02-21T12:11:44;13.10;;;6.20;;
52508;SDS011;38420;53.150;6.370;2024-02-21T12:14:10;13.85;;;6.95;;
52508;SDS011;38420;53.150;6.370;2024-02-21T12:16:40;11.03;;;6.27;;
52508;SDS011;38420;53.150;6.370;2024-02-21T12:19:07;14.95;;;6.90;;
52508;SDS011;38420;53.150;6.370;2024-02-21T12:21:34;15.27;;;6.50;;
52508;SDS011;38420;53.150;6.370;2024-02-21T12:24:11;12.10;;;6.75;;
52508;SDS011;38420;53.150;6.370;2024-02-21T12:26:38;15.35;;;6.10;;
52508;SDS011;38420;53.150;6.370;2024-02-21T12:29:03;13.13;;;6.53;;
52508;SDS011;38420;53.150;6.370;2024-02-21T12:31:29;15.10;;;6.50;;
52508;SDS011;38420;53.150;6.370;2024-02-21T12:33:55;12.88;;;6.22;;
52508;SDS011;38420;53.150;6.370;2024-02-21T12:36:21;14.63;;;5.35;;
52508;SDS011;38420;53.150;6.370;2024-02-21T12:38:46;11.70;;;4.97;;
52508;SDS011;38420;53.150;6.370;2024-02-21T12:41:14;13.63;;;5.65;;
52508;SDS011;38420;53.150;6.370;2024-02-21T12:43:40;16.27;;;6.50;;
52508;SDS011;38420;53.150;6.370;2024-02-21T12:46:06;12.90;;;5.88;;
52508;SDS011;38420;53.150;6.370;2024-02-21T12:48:32;13.93;;;5.90;;
52508;SDS011;38420;53.150;6.370;2024-02-21T12:50:59;21.95;;;6.97;;
52508;SDS011;38420;53.150;6.370;2024-02-21T12:53:24;10.90;;;6.35;;
52508;SDS011;38420;53.150;6.370;2024-02-21T12:55:50;14.63;;;7.03;;
52508;SDS011;38420;53.150;6.370;2024-02-21T12:58:16;12.43;;;7.13;;
52508;SDS011;38420;53.150;6.370;2024-02-21T13:00:42;14.77;;;6.35;;
52508;SDS011;38420;53.150;6.370;2024-02-21T13:03:08;10.75;;;6.38;;
52508;SDS011;38420;53.150;6.370;2024-02-21T13:05:35;14.30;;;6.35;;
52508;SDS011;38420;53.150;6.370;2024-02-21T13:08:01;13.77;;;6.20;;
52508;SDS011;38420;53.150;6.370;2024-02-21T13:10:27;9.43;;;5.30;;
52508;SDS011;38420;53.150;6.370;2024-02-21T13:12:53;12.13;;;4.90;;
52508;SDS011;38420;53.150;6.370;2024-02-21T13:15:19;14.48;;;5.47;;
52508;SDS011;38420;53.150;6.370;2024-02-21T13:17:45;10.35;;;5.55;;
52508;SDS011;38420;53.150;6.370;2024-02-21T13:20:11;15.98;;;5.57;;
52508;SDS011;38420;53.150;6.370;2024-02-21T13:22:37;10.05;;;5.18;;
52508;SDS011;38420;53.150;6.370;2024-02-21T13:25:03;8.57;;;4.32;;
52508;SDS011;38420;53.150;6.370;2024-02-21T13:27:30;10.63;;;4.80;;
52508;SDS011;38420;53.150;6.370;2024-02-21T13:29:55;9.35;;;4.30;;
52508;SDS011;38420;53.150;6.370;2024-02-21T13:32:22;11.27;;;4.18;;
52508;SDS011;38420;53.150;6.370;2024-02-21T13:34:47;8.60;;;5.05;;
52508;SDS011;38420;53.150;6.370;2024-02-21T13:37:13;11.15;;;4.40;;
52508;SDS011;38420;53.150;6.370;2024-02-21T13:39:40;8.77;;;3.80;;
52508;SDS011;38420;53.150;6.370;2024-02-21T13:42:05;6.75;;;3.85;;
52508;SDS011;38420;53.150;6.370;2024-02-21T13:44:31;7.80;;;3.22;;
52508;SDS011;38420;53.150;6.370;2024-02-21T13:46:57;5.32;;;3.55;;
52508;SDS011;38420;53.150;6.370;2024-02-21T13:49:23;10.93;;;3.90;;
52508;SDS011;38420;53.150;6.370;2024-02-21T13:51:49;9.35;;;4.18;;
52508;SDS011;38420;53.150;6.370;2024-02-21T13:54:14;10.45;;;4.40;;
52508;SDS011;38420;53.150;6.370;2024-02-21T13:56:44;6.20;;;3.40;;
52508;SDS011;38420;53.150;6.370;2024-02-21T13:59:11;10.32;;;3.80;;
52508;SDS011;38420;53.150;6.370;2024-02-21T14:01:38;9.45;;;3.92;;
52508;SDS011;38420;53.150;6.370;2024-02-21T14:04:04;6.93;;;4.15;;
52508;SDS011;38420;53.150;6.370;2024-02-21T14:06:29;7.95;;;3.92;;
52508;SDS011;38420;53.150;6.370;2024-02-21T14:08:55;5.80;;;3.63;;
52508;SDS011;38420;53.150;6.370;2024-02-21T14:11:21;5.68;;;4.07;;
52508;SDS011;38420;53.150;6.370;2024-02-21T14:13:46;5.65;;;3.42;;
52508;SDS011;38420;53.150;6.370;2024-02-21T14:16:12;11.60;;;3.85;;
52508;SDS011;38420;53.150;6.370;2024-02-21T14:18:38;7.38;;;4.07;;
52508;SDS011;38420;53.150;6.370;2024-02-21T14:21:07;5.88;;;2.80;;
52508;SDS011;38420;53.150;6.370;2024-02-21T14:23:35;10.43;;;4.50;;
52508;SDS011;38420;53.150;6.370;2024-02-21T14:26:02;10.50;;;3.70;;
52508;SDS011;38420;53.150;6.370;2024-02-21T14:28:28;8.80;;;4.05;;
52508;SDS011;38420;53.150;6.370;2024-02-21T14:30:54;6.03;;;2.95;;
52508;SDS011;38420;53.150;6.370;2024-02-21T14:33:22;9.68;;;3.85;;